This is the latest recevied weather packets stored in our database for station/object W1HVD. If no packets are shown the sender has not sent any weather packets the latest 10 day(s).
| Time | Temp. | Humidity | Pressure | Rain* | Wind** | Luminosity | Snow |
|---|---|---|---|---|---|---|---|
| 1778175777 | 17.78° C | 47% | 1006 hPa | 0 mm | - | 733 W/m² | - |
| 1778175475 | 17.78° C | 44% | 1006.3 hPa | 0 mm | - | 749 W/m² | - |
| 1778175172 | 17.78° C | 46% | 1006.3 hPa | 0 mm | - | 798 W/m² | - |
| 1778174868 | 16.67° C | 54% | 1006.2 hPa | 0 mm | - | 850 W/m² | - |
| 1778174565 | 17.22° C | 52% | 1006.1 hPa | 0 mm | - | 567 W/m² | - |
| 1778174260 | 16.67° C | 54% | 1006.2 hPa | 0 mm | - | 247 W/m² | - |
| 1778173958 | 16.11° C | 53% | 1006.3 hPa | 0 mm | - | 284 W/m² | - |
| 1778173655 | 16.11° C | 57% | 1006.5 hPa | 0 mm | - | 234 W/m² | - |
| 1778173352 | 16.11° C | 55% | 1006.5 hPa | 0 mm | - | 268 W/m² | - |
| 1778173047 | 16.11° C | 52% | 1006.7 hPa | 0 mm | - | 204 W/m² | - |
| 1778172744 | 16.67° C | 52% | 1006.7 hPa | 0 mm | - | 246 W/m² | - |
| 1778172440 | 17.78° C | 51% | 1006.5 hPa | 0 mm | - | 322 W/m² | - |
| 1778172137 | 17.22° C | 52% | 1006.6 hPa | 0 mm | - | 873 W/m² | - |
| 1778171834 | 17.22° C | 51% | 1006.7 hPa | 0 mm | - | 910 W/m² | - |
| 1778171532 | 16.11° C | 55% | 1006.8 hPa | 0 mm | - | 911 W/m² | - |
| 1778171228 | 15.56° C | 60% | 1006.9 hPa | 0 mm | - | 191 W/m² | - |
| 1778170924 | 15.56° C | 64% | 1007 hPa | 0 mm | - | 213 W/m² | - |
| 1778170620 | 15.56° C | 59% | 1006.9 hPa | 0 mm | - | 192 W/m² | - |
| 1778170316 | 15.56° C | 60% | 1006.9 hPa | 0 mm | - | 353 W/m² | - |
| 1778170013 | 16.11° C | 57% | 1007 hPa | 0 mm | - | 212 W/m² | - |
| 1778169705 | 15.56° C | 57% | 1007.2 hPa | 0 mm | - | 917 W/m² | - |
| 1778169400 | 15.56° C | 58% | 1007.2 hPa | 0 mm | - | 285 W/m² | - |
| 1778169097 | 15.56° C | 54% | 1007.4 hPa | 0 mm | - | 213 W/m² | - |
| 1778168793 | 15.56° C | 55% | 1007.5 hPa | 0 mm | - | 840 W/m² | - |
| 1778168491 | 15° C | 61% | 1007.4 hPa | 0 mm | - | 762 W/m² | - |
* Rain latest hour (hover to see other rain measurements)
** Current wind speed in m/s (hover to see current wind gust speed)